Terminal Aerodrome Forecast
Issued by NWS Detroit/Pontiac, MI

Home | Current Version | Previous Version | Text Only | Print | Product List | Glossary On
Versions: 1 2 3 4 5 6 7 8 9 10 11 12 13 14 15
497
FTUS43 KDTX 302047 AAA
TAFFNT
TAF AMD
KFNT 302047Z 3021/0118 09007KT 3SM -SHRA OVC006
     FM010200 12008KT 2SM SHRA BR OVC006
     FM011500 20020G30KT P6SM BKN022=

USA.gov is the U.S. government's official web portal to all federal, state and local government web resources and services.